Time;durP1;ratioP1;P1;durP2;ratioP2;P2;SDS_P1;SDS_P2;PMS_P1;PMS_P2;Temp;Humidity;BMP_temperature;BMP_pressure;BME280_temperature;BME280_humidity;BME280_pressure;Samples;Min_cycle;Max_cycle;Signal;HPM_P1;HPM_P2
2021/07/07 00:00:06;;;;;;;18.77;8.47;;;;;;;22.36;90.98;100257.89;126296;1099;104166;-77
2021/07/07 00:02:57;;;;;;;13.27;7.90;;;;;;;22.34;91.22;100255.25;126327;1099;104923;-78
2021/07/07 00:05:28;;;;;;;13.30;8.20;;;;;;;22.34;90.77;100259.72;126255;1099;104140;-78
2021/07/07 00:07:59;;;;;;;15.37;8.50;;;;;;;22.30;90.59;100258.90;126328;1099;104144;-78
2021/07/07 00:10:33;;;;;;;14.50;8.50;;;;;;;22.30;91.32;100257.95;126291;1099;110584;-78
2021/07/07 00:13:05;;;;;;;13.07;8.03;;;;;;;22.26;90.92;100260.68;126375;1099;104156;-77
2021/07/07 00:15:37;;;;;;;13.77;8.17;;;;;;;22.26;91.06;100259.81;126310;1099;105131;-79
2021/07/07 00:18:09;;;;;;;14.73;8.40;;;;;;;22.25;91.33;100264.28;126286;1099;104156;-78
2021/07/07 00:20:44;;;;;;;15.77;8.10;;;;;;;22.20;90.87;100259.91;126357;1099;104143;-77
2021/07/07 00:23:15;;;;;;;14.73;8.13;;;;;;;22.20;90.92;100260.78;126354;1098;104133;-77
2021/07/07 00:25:46;;;;;;;16.37;8.00;;;;;;;22.22;90.84;100266.09;126362;1099;104175;-77
2021/07/07 00:28:17;;;;;;;13.93;7.47;;;;;;;22.19;90.63;100264.37;126340;1099;104162;-80
2021/07/07 00:30:50;;;;;;;13.67;8.00;;;;;;;22.15;90.65;100262.66;126301;1099;104233;-77
2021/07/07 00:33:21;;;;;;;12.73;7.60;;;;;;;22.13;90.92;100269.82;126340;1099;104146;-78
2021/07/07 00:35:52;;;;;;;13.63;7.13;;;;;;;22.13;90.62;100259.13;126358;1099;104140;-78
2021/07/07 00:38:23;;;;;;;15.70;8.03;;;;;;;22.10;90.84;100253.84;126362;1099;104133;-77
2021/07/07 00:40:56;;;;;;;14.63;7.70;;;;;;;22.05;91.07;100253.91;126299;1099;118878;-77
2021/07/07 00:43:27;;;;;;;11.15;7.00;;;;;;;22.02;90.80;100259.30;126295;1099;104238;-78
2021/07/07 00:45:58;;;;;;;17.37;7.30;;;;;;;22.00;91.03;100265.56;126359;1099;104659;-77
2021/07/07 00:48:29;;;;;;;12.30;7.20;;;;;;;22.00;91.51;100260.22;126332;1099;104175;-77
2021/07/07 00:51:02;;;;;;;13.23;7.47;;;;;;;22.01;90.86;100261.98;126348;1099;104226;-77
2021/07/07 00:53:33;;;;;;;9.93;7.05;;;;;;;21.99;91.02;100271.83;126374;1099;104191;-77
2021/07/07 00:56:05;;;;;;;13.73;7.30;;;;;;;21.97;90.88;100284.30;126310;1098;104313;-77
2021/07/07 00:58:37;;;;;;;11.77;6.80;;;;;;;21.90;90.60;100279.05;126364;1099;104220;-78
2021/07/07 01:01:11;;;;;;;12.93;6.90;;;;;;;21.89;91.41;100277.30;126281;1099;105200;-78
2021/07/07 01:03:42;;;;;;;11.83;7.47;;;;;;;21.89;91.47;100266.63;126326;1098;104153;-77
2021/07/07 01:06:13;;;;;;;13.47;6.97;;;;;;;21.92;91.43;100280.83;126339;1099;104200;-78
2021/07/07 01:08:43;;;;;;;17.30;7.47;;;;;;;21.92;91.46;100281.70;126310;1099;104159;-78
2021/07/07 01:11:14;;;;;;;13.07;7.60;;;;;;;21.89;91.20;100279.97;126310;1099;104149;-78
2021/07/07 01:13:45;;;;;;;14.77;7.53;;;;;;;21.87;91.39;100284.44;126342;1099;104155;-77
2021/07/07 01:16:15;;;;;;;13.73;8.37;;;;;;;21.86;91.55;100285.36;126364;1099;104220;-78
2021/07/07 01:18:46;;;;;;;13.47;7.47;;;;;;;21.84;91.35;100286.27;126364;1099;104258;-78
2021/07/07 01:21:17;;;;;;;16.73;8.83;;;;;;;21.82;91.31;100285.42;126271;1099;104173;-78
2021/07/07 01:23:48;;;;;;;14.27;7.50;;;;;;;21.84;91.69;100288.95;126358;1099;104143;-78
2021/07/07 01:26:19;;;;;;;12.83;7.60;;;;;;;21.85;91.50;100296.06;126350;1099;104249;-77
2021/07/07 01:28:50;;;;;;;13.47;7.37;;;;;;;21.80;91.34;100293.45;126361;1099;104137;-77
2021/07/07 01:31:20;;;;;;;16.43;7.47;;;;;;;21.81;90.86;100305.02;126306;1099;104243;-78
2021/07/07 01:33:51;;;;;;;16.23;8.00;;;;;;;21.78;91.71;100305.05;126341;1097;104166;-77
2021/07/07 01:36:22;;;;;;;15.47;7.13;;;;;;;21.72;91.11;100306.91;126344;1099;104233;-77
2021/07/07 01:38:55;;;;;;;13.83;8.28;;;;;;;21.72;91.91;100316.69;126346;1099;104143;-77
2021/07/07 01:41:27;;;;;;;11.23;7.30;;;;;;;21.74;92.06;100317.57;126273;1099;104217;-78
2021/07/07 01:43:58;;;;;;;14.00;7.80;;;;;;;21.75;92.02;100313.11;126339;1099;104175;-77
2021/07/07 01:46:29;;;;;;;13.20;7.03;;;;;;;21.70;91.20;100323.84;126250;1098;104249;-77
2021/07/07 01:49:01;;;;;;;15.00;7.57;;;;;;;21.70;91.51;100327.39;126363;1099;104656;-78
2021/07/07 01:51:31;;;;;;;14.30;7.73;;;;;;;21.68;91.37;100325.66;126296;1099;104239;-78
2021/07/07 01:54:02;;;;;;;12.95;7.80;;;;;;;21.62;91.31;100326.61;126357;1099;104165;-78
2021/07/07 01:56:33;;;;;;;15.45;8.30;;;;;;;21.56;91.83;100329.36;126374;1098;104216;-78
2021/07/07 01:59:04;;;;;;;13.53;7.90;;;;;;;21.53;92.08;100322.29;126313;1099;104864;-77
2021/07/07 02:01:35;;;;;;;12.70;7.73;;;;;;;21.54;91.28;100331.17;126218;1099;105543;-78
2021/07/07 02:04:06;;;;;;;13.43;7.50;;;;;;;21.50;92.07;100327.67;126302;1099;104127;-77
2021/07/07 02:06:36;;;;;;;14.47;8.03;;;;;;;21.48;91.79;100339.22;126332;1099;104249;-78
2021/07/07 02:09:09;;;;;;;16.83;7.60;;;;;;;21.43;91.75;100344.61;126361;1098;104139;-78
2021/07/07 02:11:40;;;;;;;16.33;7.57;;;;;;;21.36;91.06;100341.14;126288;1099;104290;-78
2021/07/07 02:14:10;;;;;;;13.90;7.30;;;;;;;21.34;91.77;100347.38;126372;1099;104169;-78
2021/07/07 02:16:41;;;;;;;14.33;8.10;;;;;;;21.33;91.69;100342.93;126345;1099;104133;-77
2021/07/07 02:19:12;;;;;;;17.47;8.07;;;;;;;21.34;92.08;100347.38;126348;1098;104616;-78
2021/07/07 02:21:43;;;;;;;14.03;7.60;;;;;;;21.30;91.49;100350.97;126296;1099;104309;-78
2021/07/07 02:24:14;;;;;;;14.90;7.90;;;;;;;21.26;91.47;100354.59;126288;1099;104428;-79
2021/07/07 02:26:44;;;;;;;13.80;7.73;;;;;;;21.27;91.97;100361.67;126345;1099;104156;-77
2021/07/07 02:29:15;;;;;;;15.17;7.87;;;;;;;21.24;92.13;100365.28;126320;1099;104172;-77
2021/07/07 02:31:46;;;;;;;14.57;7.63;;;;;;;21.23;91.48;100359.97;126312;1099;104361;-77
2021/07/07 02:34:16;;;;;;;14.77;8.13;;;;;;;21.23;91.65;100354.63;126310;1099;104592;-77
2021/07/07 02:36:48;;;;;;;16.27;8.03;;;;;;;21.22;92.08;100360.85;126240;1099;104293;-77
2021/07/07 02:39:19;;;;;;;16.13;8.03;;;;;;;21.19;91.57;100365.33;126277;1099;104268;-77
2021/07/07 02:41:51;;;;;;;12.27;7.63;;;;;;;21.18;92.14;100358.22;126218;1097;104163;-76
2021/07/07 02:44:21;;;;;;;13.10;7.47;;;;;;;21.22;91.45;100363.52;126290;1097;104191;-77
2021/07/07 02:46:52;;;;;;;13.93;7.47;;;;;;;21.24;91.52;100367.05;126340;1099;104236;-77
2021/07/07 02:49:24;;;;;;;19.17;9.10;;;;;;;21.26;91.49;100371.48;126276;1099;104281;-77
2021/07/07 02:51:55;;;;;;;14.33;8.10;;;;;;;21.29;91.80;100376.78;126223;1099;104182;-77
2021/07/07 02:54:26;;;;;;;15.13;8.10;;;;;;;21.30;91.76;100375.89;126317;1099;104290;-77
2021/07/07 02:56:59;;;;;;;15.28;8.30;;;;;;;21.35;91.79;100376.72;126334;1099;104156;-78
2021/07/07 02:59:30;;;;;;;15.60;8.53;;;;;;;21.38;91.73;100375.81;126371;1097;104229;-78
2021/07/07 03:02:00;;;;;;;14.70;8.37;;;;;;;21.37;92.33;100380.25;126289;1099;104352;-78
2021/07/07 03:04:31;;;;;;;18.57;8.67;;;;;;;21.38;91.82;100375.81;126323;1099;104201;-78
2021/07/07 03:07:02;;;;;;;13.20;7.90;;;;;;;21.37;91.82;100387.38;126343;1099;104165;-77
2021/07/07 03:09:33;;;;;;;17.50;8.40;;;;;;;21.32;91.51;100387.42;126339;1099;104146;-77
2021/07/07 03:12:04;;;;;;;14.97;8.07;;;;;;;21.29;91.90;100391.92;126257;1099;104114;-76
2021/07/07 03:14:35;;;;;;;18.63;8.73;;;;;;;21.27;91.32;100386.60;126213;1098;104348;-77
2021/07/07 03:17:06;;;;;;;17.83;8.93;;;;;;;21.27;92.05;100386.60;126298;1099;104149;-77
2021/07/07 03:19:36;;;;;;;17.57;9.03;;;;;;;21.28;91.71;100391.02;126294;1099;104165;-78
2021/07/07 03:22:07;;;;;;;15.40;8.97;;;;;;;21.30;92.10;100391.00;126288;1099;104174;-78
2021/07/07 03:24:38;;;;;;;16.20;8.93;;;;;;;21.34;92.59;100385.62;126358;1099;104239;-79
2021/07/07 03:27:09;;;;;;;18.20;8.97;;;;;;;21.36;92.51;100386.51;126312;1099;104137;-78
2021/07/07 03:29:40;;;;;;;17.40;8.87;;;;;;;21.39;92.32;100393.58;126252;1099;104203;-76
2021/07/07 03:32:12;;;;;;;18.90;8.83;;;;;;;21.40;92.41;100395.36;126303;1098;104147;-77
2021/07/07 03:34:43;;;;;;;17.10;9.33;;;;;;;21.41;91.92;100396.23;126284;1099;104162;-77
2021/07/07 03:37:13;;;;;;;20.37;9.47;;;;;;;21.42;92.21;100395.34;126345;1099;104271;-78
2021/07/07 03:39:44;;;;;;;17.00;9.07;;;;;;;21.41;91.60;100397.13;126360;1099;104608;-77
2021/07/07 03:42:14;;;;;;;17.47;9.40;;;;;;;21.41;92.36;100393.56;126258;1098;104223;-77
2021/07/07 03:44:46;;;;;;;17.07;9.63;;;;;;;21.41;92.19;100399.80;126276;1097;109447;-77
2021/07/07 03:47:16;;;;;;;17.33;9.53;;;;;;;21.42;92.52;100406.89;126365;1099;104140;-77
2021/07/07 03:49:47;;;;;;;18.80;9.60;;;;;;;21.43;92.19;100403.33;126353;1099;104354;-78
2021/07/07 03:52:18;;;;;;;15.07;9.70;;;;;;;21.45;91.92;100404.19;126320;1099;104140;-77
2021/07/07 03:54:51;;;;;;;16.90;8.60;;;;;;;21.49;92.17;100405.09;126311;1099;104146;-77
2021/07/07 03:57:22;;;;;;;15.38;9.55;;;;;;;21.50;91.12;100405.08;126315;1099;104310;-77
2021/07/07 03:59:53;;;;;;;16.67;9.70;;;;;;;21.53;91.67;100407.72;126291;1099;104293;-77
2021/07/07 04:02:24;;;;;;;18.53;10.40;;;;;;;21.61;92.05;100409.40;126293;1099;105823;-78
2021/07/07 04:04:54;;;;;;;20.77;10.50;;;;;;;21.68;92.02;100417.32;126203;1099;104185;-76
2021/07/07 04:07:25;;;;;;;20.57;10.43;;;;;;;21.74;91.62;100413.70;126328;1098;104230;-76
2021/07/07 04:09:55;;;;;;;18.17;9.57;;;;;;;21.80;91.02;100416.31;126284;1099;104187;-74
2021/07/07 04:12:26;;;;;;;17.67;9.87;;;;;;;21.89;91.22;100417.97;126306;1099;104150;-74
2021/07/07 04:14:57;;;;;;;19.47;9.93;;;;;;;21.98;91.09;100422.32;126257;1099;104169;-75
2021/07/07 04:17:27;;;;;;;18.37;10.13;;;;;;;22.03;91.05;100423.14;126250;1099;104304;-75
2021/07/07 04:19:58;;;;;;;20.63;10.23;;;;;;;22.10;91.04;100419.49;126296;1099;104134;-75
2021/07/07 04:22:28;;;;;;;18.60;10.20;;;;;;;22.17;91.42;100420.29;126330;1099;104188;-75
2021/07/07 04:24:59;;;;;;;18.37;10.07;;;;;;;22.23;90.87;100415.73;126258;1099;104140;-75
2021/07/07 04:27:30;;;;;;;19.33;9.40;;;;;;;22.30;91.29;100415.66;126280;1099;104146;-75
2021/07/07 04:30:03;;;;;;;17.60;9.33;;;;;;;22.35;91.14;100408.51;126262;1099;104621;-74
2021/07/07 04:32:34;;;;;;;15.50;9.00;;;;;;;22.38;90.47;100414.69;126346;1099;104146;-75
2021/07/07 04:35:09;;;;;;;17.13;9.00;;;;;;;22.44;91.01;100419.07;126274;1099;104134;-75
2021/07/07 04:37:41;;;;;;;16.57;8.90;;;;;;;22.43;89.51;100414.62;126293;1099;104168;-73
2021/07/07 04:40:13;;;;;;;15.07;8.37;;;;;;;22.45;90.32;100415.47;126310;1099;104187;-75
2021/07/07 04:42:45;;;;;;;20.00;9.33;;;;;;;22.47;90.67;100419.03;126233;1099;104315;-74
2021/07/07 04:45:17;;;;;;;15.27;8.90;;;;;;;22.48;90.12;100423.45;126225;1099;104153;-74
2021/07/07 04:47:49;;;;;;;16.73;8.30;;;;;;;22.53;90.78;100432.30;126293;1099;104248;-75
2021/07/07 04:50:21;;;;;;;17.23;8.83;;;;;;;22.53;89.30;100426.05;126259;1099;104198;-75
2021/07/07 04:52:52;;;;;;;13.60;8.23;;;;;;;22.54;89.68;100431.38;126187;1099;104248;-76
2021/07/07 04:55:23;;;;;;;15.13;8.40;;;;;;;22.55;88.68;100430.48;126264;1099;104168;-75
2021/07/07 04:57:54;;;;;;;23.80;8.20;;;;;;;22.54;89.31;100434.05;126229;1099;104143;-74
2021/07/07 05:00:25;;;;;;;16.70;8.23;;;;;;;22.57;89.91;100433.13;126296;1098;104185;-75
2021/07/07 05:02:56;;;;;;;17.40;8.07;;;;;;;22.60;89.17;100449.13;126296;1099;104159;-75
2021/07/07 05:05:28;;;;;;;;;;;;;;;22.59;88.86;100444.68;126268;1099;104249;-74
2021/07/07 05:07:59;;;;;;;14.47;8.00;;;;;;;22.61;89.43;100446.44;126223;1099;104243;-76
2021/07/07 05:10:32;;;;;;;18.67;8.23;;;;;;;22.67;90.21;100452.59;126312;1096;104245;-75
2021/07/07 05:13:05;;;;;;;15.00;9.10;;;;;;;22.68;88.53;100449.02;126221;1099;104217;-75
2021/07/07 05:15:38;;;;;;;13.47;8.00;;;;;;;22.75;89.04;100456.93;126263;1099;104185;-75
2021/07/07 05:18:10;;;;;;;13.80;8.47;;;;;;;22.81;88.91;100455.93;126287;1099;104182;-76
2021/07/07 05:20:42;;;;;;;13.40;8.15;;;;;;;22.95;88.41;100463.73;126242;1098;104463;-77
2021/07/07 05:23:13;;;;;;;16.13;8.20;;;;;;;23.01;88.28;100462.77;126264;1099;104303;-75
2021/07/07 05:25:47;;;;;;;15.47;7.60;;;;;;;23.08;88.13;100460.01;126247;1099;104179;-76
2021/07/07 05:28:19;;;;;;;13.87;7.80;;;;;;;23.17;87.25;100463.42;126264;1099;104315;-77
2021/07/07 05:30:53;;;;;;;14.53;7.23;;;;;;;23.26;87.73;100465.95;126301;1098;104187;-76
2021/07/07 05:33:33;;;;;;;15.03;7.80;;;;;;;23.37;87.69;100463.09;126272;1099;104303;-76
2021/07/07 05:36:06;;;;;;;12.93;8.03;;;;;;;23.43;86.86;100460.30;126257;1099;104175;-75
2021/07/07 05:38:39;;;;;;;12.55;7.55;;;;;;;23.42;85.24;100459.43;126205;1099;104142;-77
2021/07/07 05:41:13;;;;;;;18.37;8.00;;;;;;;23.42;86.17;100464.78;126078;1099;104233;-77
2021/07/07 05:43:48;;;;;;;15.20;7.37;;;;;;;23.39;84.91;100464.84;126090;1099;104239;-76
2021/07/07 05:46:17;;;;;;;;;;;;;;;23.40;83.91;100469.26;126107;1099;104599;-76
2021/07/07 05:48:48;;;;;;;10.83;6.87;;;;;;;23.37;84.58;100471.12;126106;1100;104184;-75
2021/07/07 05:51:19;;;;;;;14.27;7.20;;;;;;;23.33;84.52;100467.63;126084;1099;104121;-75
2021/07/07 05:53:51;;;;;;;11.37;6.47;;;;;;;23.39;84.73;100469.29;126268;1099;104223;-75
2021/07/07 05:59:49;;;;;;;12.20;6.53;;;;;;;23.50;85.31;100475.36;126114;1099;104389;-75
2021/07/07 06:02:19;;;;;;;14.25;7.15;;;;;;;23.55;85.38;100473.47;126095;1099;104312;-74
2021/07/07 06:04:52;;;;;;;14.13;7.33;;;;;;;23.59;84.67;100479.64;126134;1099;104229;-77
2021/07/07 06:07:25;;;;;;;12.83;7.20;;;;;;;23.62;83.74;100475.14;125404;1099;104139;-77
2021/07/07 06:09:58;;;;;;;12.17;7.80;;;;;;;23.61;82.99;100478.72;126092;1099;104287;-76
2021/07/07 06:12:31;;;;;;;15.90;7.77;;;;;;;23.62;83.55;100477.81;126129;1099;104334;-74
2021/07/07 06:15:04;;;;;;;12.37;7.70;;;;;;;23.64;83.57;100475.98;126021;1099;104208;-76
2021/07/07 06:17:34;;;;;;;;;;;;;;;23.66;82.14;100487.54;126189;1099;104146;-76
2021/07/07 06:20:10;;;;;;;11.33;7.10;;;;;;;23.69;83.60;100481.25;126200;1099;104136;-74
2021/07/07 06:22:39;;;;;;;;;;;;;;;23.76;83.39;100479.33;126108;1099;104296;-75
2021/07/07 06:25:14;;;;;;;13.30;7.23;;;;;;;23.78;81.85;100481.08;125950;1099;104216;-74
2021/07/07 06:27:45;;;;;;;12.93;7.37;;;;;;;23.81;82.61;100472.08;126091;1099;104811;-76
2021/07/07 06:30:19;;;;;;;13.23;7.20;;;;;;;23.84;82.60;100478.31;126043;1099;104428;-75
2021/07/07 06:32:54;;;;;;;13.10;7.50;;;;;;;23.86;81.03;100487.20;126174;1099;104153;-75
2021/07/07 06:35:30;;;;;;;13.00;7.20;;;;;;;23.91;81.67;100489.79;125982;1099;104280;-77
2021/07/07 06:38:03;;;;;;;11.60;6.93;;;;;;;23.98;81.87;100491.45;126127;1099;107243;-76
2021/07/07 06:40:35;;;;;;;15.18;7.40;;;;;;;23.99;79.87;100486.95;126172;1098;104278;-75
2021/07/07 06:43:08;;;;;;;11.60;7.20;;;;;;;24.02;79.36;100486.90;126236;1099;104197;-75
2021/07/07 06:45:39;;;;;;;;;;;;;;;24.07;78.23;100495.72;126220;1099;103731;-75
2021/07/07 06:48:13;;;;;;;12.43;6.50;;;;;;;24.11;80.03;100491.20;126081;1099;104290;-75
2021/07/07 06:50:46;;;;;;;11.33;6.50;;;;;;;24.16;80.10;100492.85;126140;1097;104220;-73
2021/07/07 06:53:18;;;;;;;10.30;6.27;;;;;;;24.26;79.93;100498.89;126110;1099;104351;-75
2021/07/07 06:55:50;;;;;;;10.53;6.23;;;;;;;24.33;79.35;100495.19;126164;1099;104146;-75
2021/07/07 06:58:23;;;;;;;11.25;6.67;;;;;;;24.40;78.62;100488.78;126075;1099;104376;-74
2021/07/07 07:00:54;;;;;;;12.43;6.67;;;;;;;24.47;78.79;100496.70;126276;1099;104156;-74
2021/07/07 07:03:26;;;;;;;9.60;6.10;;;;;;;24.53;77.24;100489.39;126079;1099;104412;-74
2021/07/07 07:05:57;;;;;;;10.97;6.30;;;;;;;24.64;77.24;100494.55;126291;1099;104149;-74
2021/07/07 07:08:29;;;;;;;18.63;6.83;;;;;;;24.76;77.16;100491.59;126133;1099;104262;-76
2021/07/07 07:11:01;;;;;;;13.83;6.57;;;;;;;24.85;76.23;100500.33;126287;1099;104181;-75
2021/07/07 07:13:35;;;;;;;11.45;6.40;;;;;;;25.00;75.09;100505.34;126304;1097;104162;-75
2021/07/07 07:16:08;;;;;;;9.47;6.10;;;;;;;25.07;75.63;100500.70;126242;1099;104349;-76
2021/07/07 07:18:44;;;;;;;8.80;5.75;;;;;;;25.14;74.83;100498.77;126145;1099;104195;-77
2021/07/07 07:21:18;;;;;;;10.65;6.62;;;;;;;25.29;75.95;100511.81;126199;1099;104213;-75
2021/07/07 07:23:50;;;;;;;10.17;6.50;;;;;;;25.46;75.69;100495.27;126225;1099;104150;-76
2021/07/07 07:26:22;;;;;;;11.43;6.23;;;;;;;25.48;74.64;100502.38;125978;1098;104242;-75
2021/07/07 07:28:53;;;;;;;9.73;5.97;;;;;;;25.63;73.23;100510.95;126023;1099;104172;-74
2021/07/07 07:31:24;;;;;;;11.87;6.27;;;;;;;25.83;73.60;100507.73;126015;1099;104322;-75
2021/07/07 07:33:59;;;;;;;10.60;6.08;;;;;;;26.04;72.87;100511.68;126005;1098;104242;-75
2021/07/07 07:36:30;;;;;;;13.58;6.78;;;;;;;26.18;73.60;100513.98;126195;1099;104140;-75
2021/07/07 07:39:04;;;;;;;10.90;5.90;;;;;;;26.28;71.87;100518.14;126105;1099;104130;-74
2021/07/07 07:41:38;;;;;;;10.10;5.87;;;;;;;26.42;70.06;100525.81;126003;1099;104201;-75
2021/07/07 07:44:09;;;;;;;11.07;6.53;;;;;;;26.57;70.23;100511.03;126234;1099;104163;-75
2021/07/07 07:46:44;;;;;;;14.80;6.73;;;;;;;26.75;70.63;100523.05;126147;1099;104265;-74
2021/07/07 07:49:15;;;;;;;10.83;6.30;;;;;;;26.85;69.97;100515.59;126127;1099;105484;-75
2021/07/07 07:51:50;;;;;;;9.33;6.30;;;;;;;26.97;69.26;100516.99;126177;1099;104348;-75
2021/07/07 07:54:21;;;;;;;10.00;6.07;;;;;;;27.07;68.59;100518.47;126013;1099;104187;-77
2021/07/07 07:56:55;;;;;;;9.60;5.87;;;;;;;27.27;67.45;100525.90;126181;1099;104283;-74
2021/07/07 07:59:26;;;;;;;11.85;6.17;;;;;;;27.44;67.98;100523.55;126255;1099;104130;-74
2021/07/07 08:01:58;;;;;;;11.07;5.80;;;;;;;27.53;68.71;100519.63;126279;1099;104744;-74
2021/07/07 08:04:29;;;;;;;12.87;6.10;;;;;;;27.62;67.66;100527.41;126138;1099;104196;-75
2021/07/07 08:07:01;;;;;;;8.90;5.53;;;;;;;27.72;66.50;100527.08;126217;1096;104207;-75
2021/07/07 08:09:32;;;;;;;11.10;6.00;;;;;;;27.74;66.34;100527.93;126088;1099;104120;-74
2021/07/07 08:12:03;;;;;;;9.63;5.57;;;;;;;27.76;66.65;100526.92;126075;1099;104302;-75
2021/07/07 08:14:34;;;;;;;11.80;6.03;;;;;;;27.80;65.00;100523.19;126126;1099;104172;-75
2021/07/07 08:17:06;;;;;;;11.35;5.70;;;;;;;27.87;64.64;100526.54;126271;1099;104169;-74
2021/07/07 08:19:37;;;;;;;9.73;6.17;;;;;;;27.84;64.26;100526.65;126205;1099;104284;-73
2021/07/07 08:22:10;;;;;;;12.60;6.40;;;;;;;27.95;65.49;100529.00;126104;1099;104211;-74
2021/07/07 08:24:45;;;;;;;13.33;5.77;;;;;;;28.22;64.88;100526.22;126262;1099;104136;-74
2021/07/07 08:27:16;;;;;;;10.17;5.60;;;;;;;28.29;65.35;100525.93;126116;1099;104262;-76
2021/07/07 08:29:51;;;;;;;8.40;5.23;;;;;;;28.32;64.58;100531.21;126252;1099;104580;-76
2021/07/07 08:32:22;;;;;;;8.40;5.80;;;;;;;28.38;61.50;100535.51;126051;1099;104165;-75
2021/07/07 08:34:54;;;;;;;14.00;5.80;;;;;;;28.53;63.53;100531.33;126130;1099;104238;-75
2021/07/07 08:37:26;;;;;;;9.97;5.37;;;;;;;28.44;62.07;100532.58;126219;1099;104133;-76
2021/07/07 08:39:57;;;;;;;8.40;5.03;;;;;;;28.35;61.76;100532.93;126154;1099;104337;-76
2021/07/07 08:42:34;;;;;;;7.63;5.03;;;;;;;28.53;61.83;100536.73;126203;1099;104245;-75
2021/07/07 08:45:09;;;;;;;9.20;4.90;;;;;;;28.74;57.72;100539.59;126193;1099;104195;-76
2021/07/07 08:47:44;;;;;;;7.40;5.50;;;;;;;28.66;60.62;100545.28;126114;1099;104134;-77
2021/07/07 08:50:18;;;;;;;10.47;5.60;;;;;;;28.59;60.78;100550.02;126133;1099;104242;-76
2021/07/07 08:52:59;;;;;;;9.13;5.60;;;;;;;28.55;60.58;100550.16;126147;1099;104194;-75
2021/07/07 08:55:41;;;;;;;8.43;5.57;;;;;;;28.37;59.92;100546.36;126186;1099;104139;-75
2021/07/07 08:58:13;;;;;;;8.00;5.03;;;;;;;28.20;59.65;100555.95;125167;1099;104290;-74
2021/07/07 09:03:42;;;;;;;7.53;4.63;;;;;;;27.98;58.80;100555.85;125381;1099;104204;-75
2021/07/07 09:06:20;;;;;;;8.07;4.50;;;;;;;28.10;59.74;100568.03;126059;1099;104335;-75
2021/07/07 09:08:56;;;;;;;10.13;5.17;;;;;;;28.26;59.90;100561.12;125958;1099;104290;-75
2021/07/07 09:11:29;;;;;;;8.97;5.37;;;;;;;28.47;59.54;100558.55;126028;1099;104347;-75
2021/07/07 09:14:12;;;;;;;8.55;5.10;;;;;;;28.62;59.64;100559.83;126113;1099;104158;-76
2021/07/07 09:16:58;;;;;;;7.57;4.87;;;;;;;28.65;57.52;100557.88;125993;1098;104325;-76
2021/07/07 09:19:36;;;;;;;5.90;4.93;;;;;;;28.69;56.05;100566.77;125295;1099;104172;-76
2021/07/07 09:22:10;;;;;;;7.87;4.90;;;;;;;28.47;55.41;100572.05;125978;1099;104708;-77
2021/07/07 09:24:43;;;;;;;7.93;5.17;;;;;;;28.46;56.91;100570.30;125322;1099;104405;-75
2021/07/07 09:27:18;;;;;;;13.68;5.50;;;;;;;28.50;57.25;100562.03;125966;1099;105077;-76
2021/07/07 09:29:53;;;;;;;9.83;5.20;;;;;;;28.61;57.93;100569.76;125390;1099;101768;-77
2021/07/07 09:32:28;;;;;;;10.40;5.10;;;;;;;28.54;56.61;100572.72;126180;1098;104303;-76
2021/07/07 09:35:05;;;;;;;7.97;4.97;;;;;;;28.55;55.69;100572.66;126262;1098;104156;-76
2021/07/07 09:37:42;;;;;;;9.20;5.13;;;;;;;28.56;56.00;100574.39;126145;1099;104312;-77
2021/07/07 09:40:16;;;;;;;8.13;4.73;;;;;;;28.59;56.41;100570.75;126205;1098;104206;-76
2021/07/07 09:42:49;;;;;;;6.80;4.60;;;;;;;28.65;55.95;100571.38;126164;1098;104220;-75
2021/07/07 09:45:27;;;;;;;9.97;5.17;;;;;;;28.62;56.14;100574.20;126272;1097;104150;-76
2021/07/07 09:48:01;;;;;;;8.77;5.17;;;;;;;28.63;56.29;100573.27;126225;1099;104293;-75
2021/07/07 09:50:35;;;;;;;8.03;5.40;;;;;;;28.67;55.24;100572.22;126096;1099;104188;-75
2021/07/07 09:53:06;;;;;;;8.33;4.93;;;;;;;28.67;54.17;100574.92;126146;1099;104235;-74
2021/07/07 09:55:39;;;;;;;10.07;5.03;;;;;;;28.65;55.37;100575.91;126186;1099;104397;-77
2021/07/07 09:58:11;;;;;;;8.68;5.25;;;;;;;28.63;54.97;100567.00;126134;1099;104181;-76
2021/07/07 10:00:42;;;;;;;10.60;5.47;;;;;;;28.71;54.83;100577.50;126158;1099;104954;-77
2021/07/07 10:03:14;;;;;;;10.07;5.80;;;;;;;28.79;54.90;100572.68;126078;1099;104136;-77
2021/07/07 10:05:48;;;;;;;7.37;5.00;;;;;;;28.87;55.17;100570.55;126127;1099;104193;-76
2021/07/07 10:08:22;;;;;;;6.23;4.77;;;;;;;28.90;54.26;100566.86;125913;1097;104278;-77
2021/07/07 10:10:54;;;;;;;10.10;5.50;;;;;;;28.76;54.13;100562.87;126049;1099;104195;-76
2021/07/07 10:13:27;;;;;;;8.10;5.30;;;;;;;28.80;54.38;100569.92;126019;1096;104140;-77
2021/07/07 10:16:02;;;;;;;9.63;5.40;;;;;;;28.75;54.93;100561.12;125968;1099;104371;-76
2021/07/07 10:18:36;;;;;;;7.33;5.23;;;;;;;28.76;54.47;100564.70;126027;1099;104187;-76
2021/07/07 10:21:09;;;;;;;11.57;6.43;;;;;;;28.62;54.60;100568.80;126022;1099;104168;-75
2021/07/07 10:23:41;;;;;;;7.83;5.70;;;;;;;28.61;54.57;100567.06;126056;1099;104248;-75
2021/07/07 10:26:13;;;;;;;9.43;5.70;;;;;;;28.59;55.28;100566.22;126160;1099;104172;-76
2021/07/07 10:28:45;;;;;;;7.63;5.40;;;;;;;28.55;54.85;100569.05;126143;1099;104201;-76
2021/07/07 10:31:16;;;;;;;10.80;5.77;;;;;;;28.40;54.60;100560.61;126062;1099;105516;-76
2021/07/07 10:33:48;;;;;;;10.00;5.60;;;;;;;28.28;54.64;100566.46;126016;1099;104261;-75
2021/07/07 10:36:23;;;;;;;12.03;5.92;;;;;;;28.26;53.95;100566.52;126191;1099;104144;-77
2021/07/07 10:38:57;;;;;;;17.73;6.43;;;;;;;28.42;54.37;100563.25;126209;1099;104136;-77
2021/07/07 10:41:53;;;;;;;10.17;6.17;;;;;;;28.55;53.64;100569.05;126044;1099;104291;-77
2021/07/07 10:44:51;;;;;;;10.33;5.90;;;;;;;28.56;54.67;100571.70;125999;1099;104152;-76
2021/07/07 10:47:37;;;;;;;13.63;6.17;;;;;;;28.66;54.54;100572.28;126005;1099;104210;-77
2021/07/07 10:50:11;;;;;;;11.73;5.90;;;;;;;28.74;54.40;100564.76;126038;1099;104255;-77
2021/07/07 10:52:47;;;;;;;12.00;6.27;;;;;;;28.78;54.13;100562.81;126004;1099;104151;-77
2021/07/07 10:55:18;;;;;;;8.87;5.87;;;;;;;28.82;53.20;100567.16;126202;1099;104303;-77
2021/07/07 10:57:51;;;;;;;8.87;5.60;;;;;;;28.87;53.02;100570.55;126172;1099;104207;-76
2021/07/07 11:00:35;;;;;;;8.18;5.45;;;;;;;28.92;52.88;100556.86;126111;1099;104235;-76
2021/07/07 11:03:31;;;;;;;7.27;5.30;;;;;;;28.94;53.06;100555.87;126162;1099;104159;-76
2021/07/07 11:06:38;;;;;;;12.87;6.03;;;;;;;28.91;53.09;100561.39;126261;1097;104146;-76
2021/07/07 11:09:15;;;;;;;10.90;6.30;;;;;;;28.85;52.54;100561.64;125574;1098;104429;-76
2021/07/07 11:11:49;;;;;;;13.27;5.77;;;;;;;28.78;52.69;100560.11;126060;1099;104681;-77
2021/07/07 11:14:28;;;;;;;7.23;5.53;;;;;;;28.69;51.37;100569.47;126007;1099;104315;-78
2021/07/07 11:17:05;;;;;;;8.60;5.83;;;;;;;28.64;52.50;100566.94;126099;1099;104290;-78
2021/07/07 11:19:49;;;;;;;10.03;5.40;;;;;;;28.71;52.37;100569.41;125228;1099;104175;-77
2021/07/07 11:22:21;;;;;;;10.40;5.83;;;;;;;28.73;52.37;100562.12;125218;1099;104318;-78
2021/07/07 11:24:54;;;;;;;10.53;5.57;;;;;;;28.64;51.67;100571.44;125261;1102;104185;-77
2021/07/07 11:27:33;;;;;;;7.83;5.43;;;;;;;28.60;52.16;100556.32;125225;1099;104185;-78
2021/07/07 11:30:08;;;;;;;8.43;5.77;;;;;;;28.67;52.23;100553.33;125286;1102;104160;-78
2021/07/07 11:32:47;;;;;;;9.83;5.73;;;;;;;28.81;52.22;100554.59;125191;1099;104296;-78
2021/07/07 11:35:31;;;;;;;9.70;6.00;;;;;;;28.91;52.15;100558.70;125311;1099;104246;-79